Time;durP1;ratioP1;P1;durP2;ratioP2;P2;SDS_P1;SDS_P2;PMS_P1;PMS_P2;Temp;Humidity;BMP_temperature;BMP_pressure;BME280_temperature;BME280_humidity;BME280_pressure;Samples;Min_cycle;Max_cycle;Signal;HPM_P1;HPM_P2
2021/08/04 00:01:18;;;;;;;;;;;15.30;99.90;;;;;;6258240;23;20238;-85
2021/08/04 00:03:44;;;;;;;;;;;15.30;99.90;;;;;;6255389;23;19903;-85
2021/08/04 00:06:09;;;;;;;;;;;15.30;99.90;;;;;;6256644;22;19907;-85
2021/08/04 00:08:35;;;;;;;;;;;15.20;99.90;;;;;;6255469;23;19946;-86
2021/08/04 00:11:01;;;;;;;;;;;15.20;99.90;;;;;;6258686;23;19907;-85
2021/08/04 00:13:26;;;;;;;;;;;15.20;99.90;;;;;;6257511;22;19921;-85
2021/08/04 00:15:54;;;;;;;;;;;15.10;99.90;;;;;;6258353;22;19911;-85
2021/08/04 00:18:20;;;;;;;;;;;15.10;99.90;;;;;;6257955;22;19911;-85
2021/08/04 00:20:45;;;;;;;;;;;15.10;99.90;;;;;;6257037;22;20196;-85
2021/08/04 00:23:11;;;;;;;;;;;15.00;99.90;;;;;;6257815;23;19916;-85
2021/08/04 00:25:36;;;;;;;;;;;15.00;99.90;;;;;;6256859;22;19944;-86
2021/08/04 00:28:02;;;;;;;;;;;14.90;99.90;;;;;;6258548;22;19923;-86
2021/08/04 00:30:27;;;;;;;;;;;14.90;99.90;;;;;;6257217;23;20033;-85
2021/08/04 00:32:54;;;;;;;;;;;14.80;99.90;;;;;;6257976;23;19918;-85
2021/08/04 00:35:20;;;;;;;;;;;14.80;99.90;;;;;;6257626;22;19904;-86
2021/08/04 00:37:46;;;;;;;;;;;14.70;99.90;;;;;;6256510;22;19904;-85
2021/08/04 00:40:11;;;;;;;;;;;14.70;99.90;;;;;;6260490;23;19904;-85
2021/08/04 00:42:37;;;;;;;;;;;14.70;99.90;;;;;;6259799;22;19927;-85
2021/08/04 00:45:03;;;;;;;;;;;14.60;99.90;;;;;;6257558;23;19934;-85
2021/08/04 00:47:28;;;;;;;;;;;14.60;99.90;;;;;;6255513;22;19911;-85
2021/08/04 00:49:54;;;;;;;;;;;14.50;99.90;;;;;;6254767;23;19903;-85
2021/08/04 00:52:19;;;;;;;;;;;14.50;99.90;;;;;;6254841;23;19903;-85
2021/08/04 00:54:45;;;;;;;;;;;14.50;99.90;;;;;;6254886;23;19910;-85
2021/08/04 00:57:10;;;;;;;;;;;14.40;99.90;;;;;;6254019;22;19903;-85
2021/08/04 00:59:36;;;;;;;;;;;14.40;99.90;;;;;;6255674;23;19903;-85
2021/08/04 01:02:09;;;;;;;;;;;14.30;99.90;;;;;;6254801;22;19903;-84
2021/08/04 01:04:43;;;;;;;;;;;14.30;99.90;;;;;;6255530;22;19949;-85
2021/08/04 01:07:09;;;;;;;;;;;14.20;99.90;;;;;;6254784;22;19950;-85
2021/08/04 01:09:52;;;;;;;;;;;14.20;99.90;;;;;;6251468;23;19910;-86
2021/08/04 01:12:26;;;;;;;;;;;14.20;99.90;;;;;;6254353;23;19934;-85
2021/08/04 01:14:58;;;;;;;;;;;14.20;99.90;;;;;;6254623;22;19911;-85
2021/08/04 01:17:23;;;;;;;;;;;14.20;99.90;;;;;;6255018;22;19910;-85
2021/08/04 01:19:55;;;;;;;;;;;14.20;99.90;;;;;;6255958;22;19904;-85
2021/08/04 01:22:37;;;;;;;;;;;14.20;99.90;;;;;;6255572;23;20381;-85
2021/08/04 01:25:02;;;;;;;;;;;14.20;99.90;;;;;;6256029;23;19903;-85
2021/08/04 01:27:29;;;;;;;;;;;14.20;99.90;;;;;;6257122;22;19927;-85
2021/08/04 01:29:55;;;;;;;;;;;14.20;99.90;;;;;;6258093;23;19910;-85
2021/08/04 01:32:21;;;;;;;;;;;14.20;99.90;;;;;;6261344;22;19915;-85
2021/08/04 01:34:47;;;;;;;;;;;14.20;99.90;;;;;;6259017;23;19931;-85
2021/08/04 01:37:14;;;;;;;;;;;14.20;99.90;;;;;;6257779;22;19907;-85
2021/08/04 01:39:39;;;;;;;;;;;14.10;99.90;;;;;;6258217;22;20000;-86
2021/08/04 01:42:05;;;;;;;;;;;14.10;99.90;;;;;;6257269;23;20358;-85
2021/08/04 01:44:32;;;;;;;;;;;14.10;99.90;;;;;;6256445;23;19907;-85
2021/08/04 01:46:58;;;;;;;;;;;14.10;99.90;;;;;;6257716;22;19904;-85
2021/08/04 01:49:26;;;;;;;;;;;14.10;99.90;;;;;;6259059;22;19911;-85
2021/08/04 01:51:51;;;;;;;;;;;14.10;99.90;;;;;;6258838;22;19908;-85
2021/08/04 01:54:17;;;;;;;;;;;14.00;99.90;;;;;;6257667;22;19911;-85
2021/08/04 01:56:43;;;;;;;;;;;14.10;99.90;;;;;;6257817;22;19910;-85
2021/08/04 01:59:09;;;;;;;;;;;14.00;99.90;;;;;;6258283;22;19904;-86
2021/08/04 02:01:35;;;;;;;;;;;14.00;99.90;;;;;;6258429;23;19911;-85
2021/08/04 02:04:00;;;;;;;;;;;14.00;99.90;;;;;;6256954;23;19908;-85
2021/08/04 02:06:35;;;;;;;;;;;14.00;99.90;;;;;;6259195;22;19910;-84
2021/08/04 02:09:02;;;;;;;;;;;14.00;99.90;;;;;;6260065;22;19933;-85
2021/08/04 02:11:46;;;;;;;;;;;14.10;99.90;;;;;;6255790;23;19947;-85
2021/08/04 02:14:16;;;;;;;;;;;14.00;99.90;;;;;;6257654;23;19918;-85
2021/08/04 02:17:01;;;;;;;;;;;14.00;99.90;;;;;;6255891;22;19932;-85
2021/08/04 02:19:33;;;;;;;;;;;14.00;99.90;;;;;;6256206;23;19982;-85
2021/08/04 02:22:02;;;;;;;;;;;14.00;99.90;;;;;;6259510;23;19904;-86
2021/08/04 02:24:29;;;;;;;;;;;13.90;99.90;;;;;;6257932;22;19974;-85
2021/08/04 02:26:57;;;;;;;;;;;13.90;99.90;;;;;;6258272;22;20231;-85
2021/08/04 02:29:23;;;;;;;;;;;13.90;99.90;;;;;;6257277;23;19951;-86
2021/08/04 02:31:49;;;;;;;;;;;13.90;99.90;;;;;;6259172;22;19908;-85
2021/08/04 02:34:15;;;;;;;;;;;13.80;99.90;;;;;;6259102;23;19989;-85
2021/08/04 02:36:41;;;;;;;;;;;13.80;99.90;;;;;;6258485;22;19924;-85
2021/08/04 02:39:07;;;;;;;;;;;13.70;99.90;;;;;;6258273;22;19917;-85
2021/08/04 02:41:33;;;;;;;;;;;13.70;99.90;;;;;;6258620;23;20318;-85
2021/08/04 02:43:59;;;;;;;;;;;13.60;99.90;;;;;;6255901;22;19907;-85
2021/08/04 02:46:25;;;;;;;;;;;13.60;99.90;;;;;;6257516;22;20345;-84
2021/08/04 02:48:51;;;;;;;;;;;13.50;99.90;;;;;;6254450;22;19908;-85
2021/08/04 02:51:18;;;;;;;;;;;13.60;99.90;;;;;;6254996;23;20353;-85
2021/08/04 02:53:44;;;;;;;;;;;13.50;99.90;;;;;;6253550;22;19908;-84
2021/08/04 02:56:09;;;;;;;;;;;13.50;99.90;;;;;;6253307;22;19911;-86
2021/08/04 02:58:37;;;;;;;;;;;13.50;99.90;;;;;;6253765;23;20345;-86
2021/08/04 03:01:04;;;;;;;;;;;13.50;99.90;;;;;;6255183;23;19904;-85
2021/08/04 03:03:29;;;;;;;;;;;13.50;99.90;;;;;;6262296;22;19952;-86
2021/08/04 03:05:55;;;;;;;;;;;13.40;99.90;;;;;;6270598;22;19904;-85
2021/08/04 03:08:20;;;;;;;;;;;13.40;99.90;;;;;;6267383;23;19908;-85
2021/08/04 03:10:46;;;;;;;;;;;13.30;99.90;;;;;;6259538;23;19926;-85
2021/08/04 03:13:11;;;;;;;;;;;13.20;99.90;;;;;;6257808;23;20372;-85
2021/08/04 03:15:37;;;;;;;;;;;13.20;99.90;;;;;;6257151;23;19911;-86
2021/08/04 03:18:02;;;;;;;;;;;13.20;99.90;;;;;;6256904;22;19911;-85
2021/08/04 03:20:28;;;;;;;;;;;13.10;99.90;;;;;;6258418;23;19986;-84
2021/08/04 03:22:53;;;;;;;;;;;13.10;99.90;;;;;;6256006;23;20281;-85
2021/08/04 03:25:20;;;;;;;;;;;13.10;99.90;;;;;;6258792;22;19911;-85
2021/08/04 03:27:45;;;;;;;;;;;13.10;99.90;;;;;;6257193;22;19907;-85
2021/08/04 03:30:11;;;;;;;;;;;13.00;99.90;;;;;;6258238;22;19915;-85
2021/08/04 03:32:37;;;;;;;;;;;13.00;99.90;;;;;;6255771;22;19969;-86
2021/08/04 03:35:06;;;;;;;;;;;13.00;99.90;;;;;;6257425;22;19943;-85
2021/08/04 03:37:32;;;;;;;;;;;13.00;99.90;;;;;;6256257;22;19903;-85
2021/08/04 03:39:57;;;;;;;;;;;13.00;99.90;;;;;;6258954;23;19911;-86
2021/08/04 03:42:25;;;;;;;;;;;13.10;99.90;;;;;;6257228;23;19910;-85
2021/08/04 03:44:51;;;;;;;;;;;13.00;99.90;;;;;;6259040;22;19907;-85
2021/08/04 03:47:16;;;;;;;;;;;13.00;99.90;;;;;;6258515;22;19908;-85
2021/08/04 03:49:42;;;;;;;;;;;13.10;99.90;;;;;;6258493;23;19904;-85
2021/08/04 03:52:07;;;;;;;;;;;13.10;99.90;;;;;;6257628;23;19903;-85
2021/08/04 03:54:33;;;;;;;;;;;13.10;99.90;;;;;;6253667;22;19908;-85
2021/08/04 03:56:58;;;;;;;;;;;13.10;99.90;;;;;;6254835;22;19926;-85
2021/08/04 03:59:24;;;;;;;;;;;13.10;99.90;;;;;;6253787;23;19910;-85
2021/08/04 04:01:49;;;;;;;;;;;13.10;99.90;;;;;;6255180;23;19919;-85
2021/08/04 04:04:15;;;;;;;;;;;13.10;99.90;;;;;;6252849;22;19903;-85
2021/08/04 04:06:41;;;;;;;;;;;13.20;99.90;;;;;;6254458;22;19904;-85
2021/08/04 04:09:06;;;;;;;;;;;13.20;99.90;;;;;;6252375;23;20245;-85
2021/08/04 04:11:31;;;;;;;;;;;13.20;99.90;;;;;;6254242;23;19904;-85
2021/08/04 04:13:57;;;;;;;;;;;13.30;99.90;;;;;;6256598;23;20020;-84
2021/08/04 04:16:22;;;;;;;;;;;13.30;99.90;;;;;;6256107;22;19907;-85
2021/08/04 04:18:48;;;;;;;;;;;13.40;99.90;;;;;;6256082;23;19910;-84
2021/08/04 04:21:14;;;;;;;;;;;13.40;99.90;;;;;;6253848;23;19903;-85
2021/08/04 04:23:40;;;;;;;;;;;13.50;99.90;;;;;;6256836;22;19908;-85
2021/08/04 04:26:05;;;;;;;;;;;13.60;99.90;;;;;;6255144;22;19904;-85
2021/08/04 04:28:30;;;;;;;;;;;13.60;99.90;;;;;;6256535;23;19904;-85
2021/08/04 04:30:56;;;;;;;;;;;13.70;99.90;;;;;;6256934;23;20393;-85
2021/08/04 04:33:21;;;;;;;;;;;13.80;99.90;;;;;;6254016;23;19958;-85
2021/08/04 04:35:47;;;;;;;;;;;13.90;99.90;;;;;;6259046;22;19904;-86
2021/08/04 04:38:12;;;;;;;;;;;13.90;99.90;;;;;;6260738;23;19913;-85
2021/08/04 04:40:38;;;;;;;;;;;14.00;99.90;;;;;;6261237;23;19908;-86
2021/08/04 04:43:03;;;;;;;;;;;14.10;99.90;;;;;;6256667;23;19927;-85
2021/08/04 04:45:29;;;;;;;;;;;14.10;99.90;;;;;;6257672;22;19904;-85
2021/08/04 04:47:54;;;;;;;;;;;14.20;99.90;;;;;;6258778;22;19914;-85
2021/08/04 04:50:20;;;;;;;;;;;14.30;99.90;;;;;;6259402;23;19914;-84
2021/08/04 04:52:45;;;;;;;;;;;14.30;99.90;;;;;;6258941;23;19914;-85
2021/08/04 04:55:14;;;;;;;;;;;14.40;99.90;;;;;;6257413;22;19953;-85
2021/08/04 04:57:40;;;;;;;;;;;14.40;99.90;;;;;;6296033;22;19918;-86
2021/08/04 05:00:06;;;;;;;;;;;14.50;99.90;;;;;;6322695;22;19907;-86
2021/08/04 05:02:31;;;;;;;;;;;14.60;99.90;;;;;;6320156;22;19950;-86
2021/08/04 05:05:00;;;;;;;;;;;14.70;99.90;;;;;;6320874;22;19903;-86
2021/08/04 05:07:28;;;;;;;;;;;14.80;99.90;;;;;;6263336;22;20094;-86
2021/08/04 05:09:53;;;;;;;;;;;14.90;99.90;;;;;;6291332;22;19910;-86
2021/08/04 05:12:19;;;;;;;;;;;15.00;99.90;;;;;;6288960;22;19927;-86
2021/08/04 05:14:44;;;;;;;;;;;15.10;99.90;;;;;;6290026;22;19911;-83
2021/08/04 05:17:12;;;;;;;;;;;15.10;99.90;;;;;;6289864;22;19930;-84
2021/08/04 05:19:38;;;;;;;;;;;15.20;99.90;;;;;;6262306;22;19903;-84
2021/08/04 05:22:03;;;;;;;;;;;15.30;99.90;;;;;;6290689;22;19903;-83
2021/08/04 05:24:29;;;;;;;;;;;15.40;99.90;;;;;;6288836;22;19907;-84
2021/08/04 05:26:54;;;;;;;;;;;15.50;99.90;;;;;;6288860;22;19953;-86
2021/08/04 05:29:20;;;;;;;;;;;15.60;99.90;;;;;;6289857;22;20237;-87
2021/08/04 05:31:45;;;;;;;;;;;15.80;99.90;;;;;;6263632;22;19903;-86
2021/08/04 05:34:13;;;;;;;;;;;16.00;99.90;;;;;;6289179;22;19981;-86
2021/08/04 05:36:38;;;;;;;;;;;16.20;99.90;;;;;;6291412;22;19911;-86
2021/08/04 05:39:04;;;;;;;;;;;16.40;99.90;;;;;;6289551;22;19903;-84
2021/08/04 05:41:29;;;;;;;;;;;16.60;99.90;;;;;;6257953;22;19903;-84
2021/08/04 05:44:05;;;;;;;;;;;;;;;;;;;;;
2021/08/04 05:46:31;;;;;;;;;;;17.30;99.90;;;;;;6286303;22;19953;-84
2021/08/04 05:48:57;;;;;;;;;;;18.50;99.90;;;;;;6258475;22;19907;-85
2021/08/04 05:51:25;;;;;;;;;;;20.30;99.90;;;;;;6286606;22;19904;-83
2021/08/04 05:54:00;;;;;;;;;;;;;;;;;;;;;
2021/08/04 05:56:38;;;;;;;;;;;23.40;99.90;;;;;;6285982;22;20286;-83
2021/08/04 05:59:10;;;;;;;;;;;24.70;99.90;;;;;;6259953;22;19982;-83
2021/08/04 06:01:38;;;;;;;;;;;25.90;98.90;;;;;;6259407;22;19962;-82
2021/08/04 06:04:04;;;;;;;;;;;27.10;95.70;;;;;;6288140;22;19927;-83
2021/08/04 06:06:29;;;;;;;;;;;28.40;92.90;;;;;;6289008;22;19945;-83
2021/08/04 06:08:55;;;;;;;;;;;29.30;90.30;;;;;;6289044;22;19920;-83
2021/08/04 06:11:24;;;;;;;;;;;29.60;87.10;;;;;;6288163;22;19903;-83
2021/08/04 06:13:52;;;;;;;;;;;30.00;85.70;;;;;;6261249;22;19929;-84
2021/08/04 06:16:19;;;;;;;;;;;30.70;83.40;;;;;;6260448;22;20308;-83
2021/08/04 06:18:45;;;;;;;;;;;31.40;80.70;;;;;;6260337;22;19960;-84
2021/08/04 06:21:10;;;;;;;;;;;31.80;78.70;;;;;;6286926;22;19904;-83
2021/08/04 06:23:36;;;;;;;;;;;32.60;76.90;;;;;;6286952;22;20066;-83
2021/08/04 06:26:01;;;;;;;;;;;33.70;73.60;;;;;;6286554;22;19907;-83
2021/08/04 06:28:27;;;;;;;;;;;35.00;69.60;;;;;;6281598;22;19910;-83
2021/08/04 06:30:54;;;;;;;;;;;36.20;65.50;;;;;;6285622;22;19903;-83
2021/08/04 06:33:19;;;;;;;;;;;37.10;62.20;;;;;;6287120;22;20343;-82
2021/08/04 06:35:45;;;;;;;;;;;37.70;59.70;;;;;;6259508;22;19906;-83
2021/08/04 06:38:10;;;;;;;;;;;38.30;58.40;;;;;;6286858;22;19907;-83
2021/08/04 06:40:36;;;;;;;;;;;39.10;57.40;;;;;;6257267;22;19935;-83
2021/08/04 06:43:01;;;;;;;;;;;40.00;56.20;;;;;;6259268;22;19899;-82
2021/08/04 06:45:27;;;;;;;;;;;41.00;55.00;;;;;;6286774;22;19964;-83
2021/08/04 06:47:52;;;;;;;;;;;42.10;53.50;;;;;;6256733;22;19903;-83
2021/08/04 06:50:18;;;;;;;;;;;42.90;52.10;;;;;;6255034;22;20296;-82
2021/08/04 07:14:23;;;;;;;;;;;50.20;41.50;;;;;;5003366;27;3876631;-87
2021/08/04 07:16:56;;;;;;;;;;;50.30;41.10;;;;;;5125818;27;20014;-88
2021/08/04 07:19:21;;;;;;;;;;;50.50;40.30;;;;;;5123285;27;20015;-87
2021/08/04 07:21:47;;;;;;;;;;;50.50;39.70;;;;;;5121156;28;19951;-87
2021/08/04 07:24:12;;;;;;;;;;;50.70;39.30;;;;;;5131246;28;19915;-87
2021/08/04 07:26:39;;;;;;;;;;;50.80;39.10;;;;;;5109946;28;19916;-86
2021/08/04 07:29:05;;;;;;;;;;;51.10;39.00;;;;;;5128965;28;20295;-86
2021/08/04 07:31:31;;;;;;;;;;;51.40;38.60;;;;;;5127303;28;19916;-85
2021/08/04 07:33:57;;;;;;;;;;;51.70;38.30;;;;;;5134816;28;19919;-85
2021/08/04 07:36:22;;;;;;;;;;;52.10;38.20;;;;;;5129061;28;19912;-85
2021/08/04 07:38:48;;;;;;;;;;;52.60;38.00;;;;;;5131292;28;20418;-86
2021/08/04 07:41:13;;;;;;;;;;;52.80;37.70;;;;;;5114434;28;19912;-86
2021/08/04 07:43:39;;;;;;;;;;;53.30;37.60;;;;;;5124902;27;20383;-86
2021/08/04 07:46:04;;;;;;;;;;;53.50;37.20;;;;;;5123919;28;19923;-85
2021/08/04 07:48:30;;;;;;;;;;;53.60;36.50;;;;;;5111410;28;19915;-85
2021/08/04 07:50:56;;;;;;;;;;;53.60;36.20;;;;;;5128401;28;19912;-86
2021/08/04 07:53:22;;;;;;;;;;;53.90;36.10;;;;;;5129391;28;19916;-85
2021/08/04 07:55:47;;;;;;;;;;;54.20;35.90;;;;;;5129931;28;20332;-86
2021/08/04 07:58:13;;;;;;;;;;;54.20;35.60;;;;;;5129539;28;20003;-86
2021/08/04 08:00:38;;;;;;;;;;;54.30;35.70;;;;;;5115790;28;20436;-87
2021/08/04 08:03:04;;;;;;;;;;;54.50;35.30;;;;;;5118668;28;20006;-87
2021/08/04 08:05:30;;;;;;;;;;;54.40;34.80;;;;;;5128135;28;19916;-87
2021/08/04 08:07:55;;;;;;;;;;;54.30;34.40;;;;;;5128314;28;20401;-87
2021/08/04 08:10:21;;;;;;;;;;;54.20;34.20;;;;;;5128961;28;19994;-86
2021/08/04 08:12:48;;;;;;;;;;;54.30;33.40;;;;;;5111358;28;20360;-85
2021/08/04 08:15:15;;;;;;;;;;;53.90;32.60;;;;;;5127087;28;19911;-87
2021/08/04 08:17:41;;;;;;;;;;;53.70;33.00;;;;;;5130029;28;19933;-87
2021/08/04 08:20:07;;;;;;;;;;;53.90;33.10;;;;;;5126553;28;19939;-86
2021/08/04 08:22:33;;;;;;;;;;;54.30;33.00;;;;;;5098920;28;19919;-85
2021/08/04 08:24:58;;;;;;;;;;;54.60;32.90;;;;;;5114276;28;19919;-85
2021/08/04 08:27:24;;;;;;;;;;;54.70;32.50;;;;;;5077262;28;20248;-85
2021/08/04 08:29:52;;;;;;;;;;;54.40;31.80;;;;;;5104473;28;19923;-87
2021/08/04 08:32:18;;;;;;;;;;;54.00;31.90;;;;;;5116330;28;20313;-85
2021/08/04 08:34:43;;;;;;;;;;;53.90;32.00;;;;;;5107976;28;19963;-85
2021/08/04 08:37:08;;;;;;;;;;;53.90;31.90;;;;;;5102672;28;19912;-86
2021/08/04 08:39:34;;;;;;;;;;;53.90;31.80;;;;;;5101888;28;20286;-86
2021/08/04 08:42:00;;;;;;;;;;;54.20;31.80;;;;;;5084680;28;19942;-86
2021/08/04 08:44:26;;;;;;;;;;;53.90;31.90;;;;;;5114247;28;20344;-85
2021/08/04 08:46:52;;;;;;;;;;;53.40;31.80;;;;;;5108114;28;20006;-85
2021/08/04 08:49:24;;;;;;;;;;;53.00;32.00;;;;;;5093767;28;20003;-85
2021/08/04 08:51:49;;;;;;;;;;;53.00;32.30;;;;;;5096659;28;19919;-86
2021/08/04 08:54:15;;;;;;;;;;;53.00;32.20;;;;;;5095866;28;20374;-86
2021/08/04 08:56:42;;;;;;;;;;;52.80;31.90;;;;;;5106704;28;19912;-85
2021/08/04 08:59:08;;;;;;;;;;;52.30;31.60;;;;;;5094627;28;19912;-85
2021/08/04 09:01:35;;;;;;;;;;;50.90;31.00;;;;;;5093141;28;19915;-86
2021/08/04 09:04:02;;;;;;;;;;;50.40;31.20;;;;;;5115264;28;19984;-85
2021/08/04 09:06:43;;;;;;;;;;;50.20;31.20;;;;;;5098150;28;19919;-85
2021/08/04 09:09:19;;;;;;;;;;;50.30;31.00;;;;;;5097801;28;19908;-85
2021/08/04 09:11:50;;;;;;;;;;;49.80;29.90;;;;;;5113995;28;19911;-85
2021/08/04 09:14:15;;;;;;;;;;;49.30;30.00;;;;;;5104259;28;19956;-84
2021/08/04 09:16:43;;;;;;;;;;;49.30;30.00;;;;;;5111968;28;20340;-85
2021/08/04 09:19:20;;;;;;;;;;;49.30;30.30;;;;;;5083174;28;20001;-85
2021/08/04 09:22:03;;;;;;;;;;;47.80;30.80;;;;;;5100027;28;20278;-85
2021/08/04 09:24:28;;;;;;;;;;;45.90;32.20;;;;;;5098517;28;19908;-84
2021/08/04 09:26:54;;;;;;;;;;;44.80;31.80;;;;;;5107304;28;19980;-84
2021/08/04 09:29:19;;;;;;;;;;;42.80;33.20;;;;;;5101318;28;19918;-85
2021/08/04 09:31:51;;;;;;;;;;;42.00;34.70;;;;;;5098203;28;19946;-84
2021/08/04 09:34:26;;;;;;;;;;;43.30;33.60;;;;;;5094743;28;19965;-85
2021/08/04 09:37:03;;;;;;;;;;;44.70;32.50;;;;;;5105871;28;20425;-84
2021/08/04 09:39:28;;;;;;;;;;;45.70;31.70;;;;;;5094107;28;19927;-84
2021/08/04 09:41:54;;;;;;;;;;;45.10;31.60;;;;;;5113088;28;20290;-84
2021/08/04 09:44:19;;;;;;;;;;;44.50;32.40;;;;;;5111359;28;19935;-84
2021/08/04 09:46:45;;;;;;;;;;;45.40;31.60;;;;;;5103417;28;19916;-85
2021/08/04 09:49:17;;;;;;;;;;;46.40;31.30;;;;;;5088777;28;20359;-85
2021/08/04 09:51:43;;;;;;;;;;;47.10;30.60;;;;;;5110295;28;19994;-85
2021/08/04 09:54:10;;;;;;;;;;;45.10;31.20;;;;;;5092669;28;19961;-85
2021/08/04 09:57:05;;;;;;;;;;;43.30;32.50;;;;;;5097935;28;19917;-84
2021/08/04 09:59:30;;;;;;;;;;;41.90;33.60;;;;;;5071217;28;19916;-84
2021/08/04 10:01:58;;;;;;;;;;;40.40;34.30;;;;;;5102931;28;19957;-84
2021/08/04 10:04:24;;;;;;;;;;;39.30;35.10;;;;;;5094420;28;20299;-84
2021/08/04 10:06:50;;;;;;;;;;;40.00;35.40;;;;;;5080783;28;19912;-84
2021/08/04 10:09:17;;;;;;;;;;;41.50;34.20;;;;;;5099302;28;20001;-84
2021/08/04 10:11:43;;;;;;;;;;;43.20;33.30;;;;;;5099709;28;19915;-84
2021/08/04 10:14:09;;;;;;;;;;;44.60;32.50;;;;;;5109234;28;19916;-85
2021/08/04 10:16:36;;;;;;;;;;;45.00;31.80;;;;;;5110101;28;19912;-84
2021/08/04 10:19:02;;;;;;;;;;;45.20;32.20;;;;;;5093686;28;19999;-85
2021/08/04 10:21:28;;;;;;;;;;;45.90;31.80;;;;;;5112631;28;19908;-84
2021/08/04 10:23:54;;;;;;;;;;;46.60;31.40;;;;;;5110314;28;19964;-84
2021/08/04 10:26:20;;;;;;;;;;;47.10;31.00;;;;;;5091514;28;19916;-85
2021/08/04 10:28:48;;;;;;;;;;;47.60;30.80;;;;;;5102764;28;20006;-85
2021/08/04 10:31:14;;;;;;;;;;;48.00;30.60;;;;;;5100917;28;19922;-85
2021/08/04 10:33:42;;;;;;;;;;;48.40;30.50;;;;;;5071635;28;19999;-85
2021/08/04 10:36:12;;;;;;;;;;;48.50;30.30;;;;;;5095351;28;19973;-85
2021/08/04 10:38:57;;;;;;;;;;;48.60;30.20;;;;;;5110410;28;19915;-85
2021/08/04 10:41:23;;;;;;;;;;;48.80;30.10;;;;;;5091422;28;19951;-84
2021/08/04 10:43:56;;;;;;;;;;;48.90;30.10;;;;;;5105696;28;19912;-85
2021/08/04 10:46:28;;;;;;;;;;;49.00;29.50;;;;;;5103589;28;19919;-84
2021/08/04 10:49:13;;;;;;;;;;;48.90;29.50;;;;;;5109865;28;19919;-84
2021/08/04 10:51:43;;;;;;;;;;;49.00;29.40;;;;;;5091898;28;19947;-84
2021/08/04 10:54:14;;;;;;;;;;;49.30;29.20;;;;;;5077350;28;19955;-86
2021/08/04 10:56:42;;;;;;;;;;;49.60;29.00;;;;;;5082558;28;20329;-85
2021/08/04 10:59:08;;;;;;;;;;;50.00;28.80;;;;;;5103419;28;19919;-85
2021/08/04 11:01:34;;;;;;;;;;;50.30;28.50;;;;;;5093532;28;20406;-85
2021/08/04 11:03:59;;;;;;;;;;;50.10;28.40;;;;;;5105005;28;19924;-85
2021/08/04 11:06:25;;;;;;;;;;;50.10;28.40;;;;;;5089076;28;20783;-84
2021/08/04 11:09:10;;;;;;;;;;;50.10;28.40;;;;;;5109493;28;19911;-85
2021/08/04 11:11:54;;;;;;;;;;;50.10;28.50;;;;;;5107043;28;20002;-86
2021/08/04 11:14:39;;;;;;;;;;;50.20;28.60;;;;;;5105082;28;19920;-85
2021/08/04 11:17:05;;;;;;;;;;;50.10;28.40;;;;;;5093196;28;19940;-85
2021/08/04 11:19:34;;;;;;;;;;;49.60;28.30;;;;;;5082147;28;19912;-86
2021/08/04 11:22:17;;;;;;;;;;;49.30;28.40;;;;;;5090071;28;19908;-85
2021/08/04 11:25:04;;;;;;;;;;;49.20;28.40;;;;;;5097781;28;19908;-84
2021/08/04 11:27:31;;;;;;;;;;;49.20;28.40;;;;;;5109533;28;19998;-85
2021/08/04 11:29:57;;;;;;;;;;;49.10;28.40;;;;;;5097890;28;20290;-86
2021/08/04 11:32:24;;;;;;;;;;;48.90;28.30;;;;;;5073626;28;19916;-85
2021/08/04 11:34:53;;;;;;;;;;;48.70;28.50;;;;;;5090257;28;20430;-85
2021/08/04 11:37:18;;;;;;;;;;;48.20;27.80;;;;;;5093535;28;19908;-85
2021/08/04 11:39:58;;;;;;;;;;;47.30;27.90;;;;;;5094124;28;19935;-84
2021/08/04 11:42:24;;;;;;;;;;;45.90;28.60;;;;;;5105353;28;20006;-84
2021/08/04 11:44:49;;;;;;;;;;;44.50;29.20;;;;;;5124745;28;19912;-85
2021/08/04 11:47:15;;;;;;;;;;;43.30;29.40;;;;;;5115610;28;19932;-84
2021/08/04 11:49:46;;;;;;;;;;;42.00;29.80;;;;;;5084187;28;19977;-84
2021/08/04 11:52:22;;;;;;;;;;;40.40;30.10;;;;;;5097146;28;20499;-84
2021/08/04 11:54:57;;;;;;;;;;;39.50;30.80;;;;;;5106661;28;19931;-83
2021/08/04 11:57:28;;;;;;;;;;;38.80;31.40;;;;;;5098239;28;20010;-83
2021/08/04 11:59:59;;;;;;;;;;;38.10;31.70;;;;;;5089150;28;19916;-84
2021/08/04 12:02:25;;;;;;;;;;;37.40;31.90;;;;;;5108137;28;19916;-83
2021/08/04 12:04:52;;;;;;;;;;;36.80;32.10;;;;;;5120173;28;20022;-83
2021/08/04 12:07:20;;;;;;;;;;;37.60;32.30;;;;;;5115607;28;19915;-84
2021/08/04 12:09:46;;;;;;;;;;;39.10;31.20;;;;;;5111386;28;19912;-84
2021/08/04 12:12:19;;;;;;;;;;;40.50;30.30;;;;;;5114928;28;19915;-84
2021/08/04 12:14:45;;;;;;;;;;;41.40;29.80;;;;;;5115666;28;19919;-84
2021/08/04 12:17:19;;;;;;;;;;;40.70;29.70;;;;;;5114774;28;19920;-84
2021/08/04 12:19:44;;;;;;;;;;;40.00;30.10;;;;;;5094629;28;19912;-84
2021/08/04 12:22:18;;;;;;;;;;;39.40;30.60;;;;;;5119244;28;20462;-83
2021/08/04 12:24:45;;;;;;;;;;;38.90;30.80;;;;;;5121809;28;19916;-82
2021/08/04 12:27:10;;;;;;;;;;;38.20;31.20;;;;;;5113341;28;19955;-83
2021/08/04 12:29:36;;;;;;;;;;;37.60;31.50;;;;;;5102637;28;20271;-83
2021/08/04 12:32:21;;;;;;;;;;;37.30;31.50;;;;;;5109409;28;20010;-83
2021/08/04 12:34:51;;;;;;;;;;;37.00;31.40;;;;;;5125083;28;20009;-83
2021/08/04 12:37:17;;;;;;;;;;;37.10;31.60;;;;;;5101766;28;19912;-82
2021/08/04 12:39:43;;;;;;;;;;;37.60;31.00;;;;;;5097804;28;19923;-83
2021/08/04 12:42:09;;;;;;;;;;;37.90;30.80;;;;;;5119798;28;19961;-82
2021/08/04 12:44:35;;;;;;;;;;;38.10;30.10;;;;;;5119284;28;19957;-83
2021/08/04 12:47:07;;;;;;;;;;;38.00;29.80;;;;;;5118016;28;20286;-83
2021/08/04 12:49:33;;;;;;;;;;;37.80;29.60;;;;;;5118106;28;19915;-83
2021/08/04 12:52:00;;;;;;;;;;;37.30;29.40;;;;;;5104723;28;19912;-82
2021/08/04 12:54:30;;;;;;;;;;;36.00;29.90;;;;;;5113136;28;19940;-83
2021/08/04 12:56:56;;;;;;;;;;;34.80;30.60;;;;;;5115495;28;19984;-83
2021/08/04 12:59:23;;;;;;;;;;;33.90;31.30;;;;;;5118372;28;19920;-84
2021/08/04 13:01:52;;;;;;;;;;;33.20;31.70;;;;;;5103856;28;20540;-84
2021/08/04 13:04:25;;;;;;;;;;;33.30;31.80;;;;;;5103172;28;19986;-82
2021/08/04 13:06:55;;;;;;;;;;;34.00;31.70;;;;;;5116689;28;20401;-83
2021/08/04 13:09:22;;;;;;;;;;;34.70;31.20;;;;;;5102049;28;19912;-83
2021/08/04 13:11:48;;;;;;;;;;;35.20;31.00;;;;;;5103748;28;19912;-84
2021/08/04 13:14:14;;;;;;;;;;;34.90;30.50;;;;;;5096301;28;19965;-84
2021/08/04 13:16:41;;;;;;;;;;;34.40;31.00;;;;;;5107967;28;19912;-84
2021/08/04 13:19:18;;;;;;;;;;;34.40;31.00;;;;;;5118148;28;19912;-84
2021/08/04 13:22:10;;;;;;;;;;;34.20;31.10;;;;;;5100881;28;19923;-85
2021/08/04 13:24:36;;;;;;;;;;;34.20;31.30;;;;;;5108138;28;19919;-84
2021/08/04 13:27:21;;;;;;;;;;;33.60;31.30;;;;;;5117477;28;19919;-83
2021/08/04 13:29:47;;;;;;;;;;;33.40;32.00;;;;;;5113419;28;19919;-83
2021/08/04 13:32:12;;;;;;;;;;;33.90;31.90;;;;;;5114165;28;19908;-84
2021/08/04 13:34:38;;;;;;;;;;;33.90;31.30;;;;;;5119506;28;20351;-84
2021/08/04 13:37:03;;;;;;;;;;;33.90;31.30;;;;;;5101710;28;19951;-84
2021/08/04 13:39:29;;;;;;;;;;;34.20;31.20;;;;;;5099356;28;19912;-85
2021/08/04 13:41:54;;;;;;;;;;;34.30;30.90;;;;;;5117272;28;19912;-84
2021/08/04 13:44:20;;;;;;;;;;;34.10;30.00;;;;;;5107083;28;19922;-84
2021/08/04 13:46:45;;;;;;;;;;;33.40;29.90;;;;;;5114548;28;19916;-84
2021/08/04 13:49:11;;;;;;;;;;;33.10;30.30;;;;;;5105884;28;19912;-82
2021/08/04 13:51:36;;;;;;;;;;;33.20;30.70;;;;;;5092157;28;19912;-84
2021/08/04 13:54:02;;;;;;;;;;;33.10;30.40;;;;;;5095526;28;19963;-84
2021/08/04 13:56:27;;;;;;;;;;;32.70;30.20;;;;;;5120967;28;19914;-84
2021/08/04 13:58:53;;;;;;;;;;;32.40;30.60;;;;;;5097601;28;20619;-83
2021/08/04 14:01:18;;;;;;;;;;;32.40;30.90;;;;;;5113008;28;20020;-82
2021/08/04 14:03:43;;;;;;;;;;;32.50;31.00;;;;;;5102455;28;19912;-84
2021/08/04 14:06:09;;;;;;;;;;;32.30;31.10;;;;;;5102788;28;19909;-82
2021/08/04 14:08:34;;;;;;;;;;;32.10;31.40;;;;;;5113709;28;19911;-83
2021/08/04 14:11:00;;;;;;;;;;;31.90;31.40;;;;;;5116468;28;19913;-84
2021/08/04 14:13:25;;;;;;;;;;;31.60;31.60;;;;;;5100140;28;19916;-84
2021/08/04 14:15:51;;;;;;;;;;;31.40;31.80;;;;;;5089775;28;19911;-84
2021/08/04 14:18:17;;;;;;;;;;;31.40;32.00;;;;;;5120479;28;19935;-84
2021/08/04 14:20:42;;;;;;;;;;;31.30;32.00;;;;;;5108170;28;19911;-84
2021/08/04 14:23:08;;;;;;;;;;;31.20;32.10;;;;;;5120492;28;19911;-84
2021/08/04 14:25:34;;;;;;;;;;;30.90;32.10;;;;;;5111020;28;19916;-85
2021/08/04 14:28:01;;;;;;;;;;;30.60;32.40;;;;;;5112241;28;19983;-85
2021/08/04 14:30:27;;;;;;;;;;;30.30;32.50;;;;;;5115651;28;19984;-85
2021/08/04 14:32:52;;;;;;;;;;;30.00;32.90;;;;;;5107692;28;19977;-85
2021/08/04 14:35:20;;;;;;;;;;;29.80;33.20;;;;;;5106953;28;20002;-86
2021/08/04 14:37:46;;;;;;;;;;;29.60;33.40;;;;;;5114223;28;19992;-85
2021/08/04 14:40:11;;;;;;;;;;;29.30;33.60;;;;;;5117776;28;19912;-86
2021/08/04 14:42:37;;;;;;;;;;;29.10;33.90;;;;;;5118915;28;19964;-85